KTCS/TCS METAR and TAF weather

Enter ICAO airport designator
Station Type Date Time Source
KTCS METAR 2020/09/25 18:53 UTC NOAA

KTCS 251853Z AUTO 09007G14KT 10SM CLR 32/01 A3011 RMK AO2 SLP104 T03220011


Station Type Date Time Source
KTCS Decoded METAR 2020/09/25 18:53 UTC NOAA

TRUTH OR CONSEQUENCES MUNI, NM, United States (KTCS) 33-14N 107-16W 1469M
Sep 25, 2020 - 02:53 PM EDT / 2020.09.25 1853 UTC
Wind: from the E (090 degrees) at 8 MPH (7 KT) gusting to 16 MPH (14 KT):0
Visibility: 10 mile(s):0
Sky conditions: clear
Temperature: 90.0 F (32.2 C)
Dew Point: 34.0 F (1.1 C)
Relative Humidity: 13%
Pressure (altimeter): 30.11 in. Hg (1019 hPa)
ob: KTCS 251853Z AUTO 09007G14KT 10SM CLR 32/01 A3011 RMK AO2 SLP104 T03220011
cycle: 19

Station Type Date Time Source
KTCS TAF 2020/09/25 18:28 UTC NOAA

TAF KTCS 251726Z 2518/2618 VRB05KT P6SM SKC
FM260200 32009KT P6SM SKC

Example: see airport list